Time;durP1;ratioP1;P1;durP2;ratioP2;P2;SDS_P1;SDS_P2;PMS_P1;PMS_P2;Temp;Humidity;BMP_temperature;BMP_pressure;BME280_temperature;BME280_humidity;BME280_pressure;Samples;Min_cycle;Max_cycle;Signal;HPM_P1;HPM_P2
2022/01/09 00:00:33;;;;;;;;;;;5.70;99.90;;;;;;5076246;28;19924;-62
2022/01/09 00:03:01;;;;;;;;;;;5.70;99.90;;;;;;5069946;28;20003;-62
2022/01/09 00:05:28;;;;;;;;;;;5.70;99.90;;;;;;5070670;28;19924;-62
2022/01/09 00:07:55;;;;;;;;;;;5.70;99.90;;;;;;5071660;28;20274;-62
2022/01/09 00:10:22;;;;;;;;;;;5.70;99.90;;;;;;5064043;28;19924;-62
2022/01/09 00:12:49;;;;;;;;;;;5.70;99.90;;;;;;5067675;28;19930;-62
2022/01/09 00:15:15;;;;;;;;;;;5.70;99.90;;;;;;5071812;28;20381;-62
2022/01/09 00:17:42;;;;;;;;;;;5.70;99.90;;;;;;5070643;28;19931;-62
2022/01/09 00:20:11;;;;;;;;;;;5.70;99.90;;;;;;5072208;28;19924;-62
2022/01/09 00:22:42;;;;;;;;;;;5.70;99.90;;;;;;5072170;28;19928;-62
2022/01/09 00:25:09;;;;;;;;;;;5.60;99.90;;;;;;5066563;28;19935;-62
2022/01/09 00:27:37;;;;;;;;;;;5.70;99.90;;;;;;5069305;28;19947;-62
2022/01/09 00:30:04;;;;;;;;;;;5.80;99.90;;;;;;5071956;28;19932;-63
2022/01/09 00:32:30;;;;;;;;;;;5.70;99.90;;;;;;5064546;28;19928;-62
2022/01/09 00:34:57;;;;;;;;;;;5.80;99.90;;;;;;5070499;28;19939;-62
2022/01/09 00:37:25;;;;;;;;;;;5.80;99.90;;;;;;5068530;28;19931;-62
2022/01/09 00:39:52;;;;;;;;;;;5.80;99.90;;;;;;5063190;28;20416;-62
2022/01/09 00:42:19;;;;;;;;;;;5.90;99.90;;;;;;5072793;28;19924;-62
2022/01/09 00:44:46;;;;;;;;;;;5.90;99.90;;;;;;5073536;28;19931;-63
2022/01/09 00:47:13;;;;;;;;;;;5.90;99.90;;;;;;5068442;28;19931;-62
2022/01/09 00:49:39;;;;;;;;;;;5.90;99.90;;;;;;5071095;28;19936;-61
2022/01/09 00:52:06;;;;;;;;;;;6.00;99.90;;;;;;5070506;28;19950;-61
2022/01/09 00:54:34;;;;;;;;;;;5.90;99.90;;;;;;5072617;28;20293;-61
2022/01/09 00:57:00;;;;;;;;;;;6.00;99.90;;;;;;5067313;28;19932;-61
2022/01/09 00:59:27;;;;;;;;;;;6.00;99.90;;;;;;5067209;28;20386;-63
2022/01/09 01:01:54;;;;;;;;;;;6.00;99.90;;;;;;5067760;28;20023;-61
2022/01/09 01:04:20;;;;;;;;;;;6.00;99.90;;;;;;5068797;28;19928;-61
2022/01/09 01:06:49;;;;;;;;;;;6.00;99.90;;;;;;5092239;22;20002;-68
2022/01/09 01:09:16;;;;;;;;;;;6.00;99.90;;;;;;5068001;28;19925;-68
2022/01/09 01:11:44;;;;;;;;;;;6.00;99.90;;;;;;5068280;28;19932;-68
2022/01/09 01:14:10;;;;;;;;;;;6.00;99.90;;;;;;5067731;28;20292;-67
2022/01/09 01:16:37;;;;;;;;;;;6.00;99.90;;;;;;5065887;28;19925;-68
2022/01/09 01:19:05;;;;;;;;;;;6.00;99.90;;;;;;5067247;28;19928;-67
2022/01/09 01:21:33;;;;;;;;;;;6.00;99.90;;;;;;5061205;28;19958;-68
2022/01/09 01:23:59;;;;;;;;;;;6.00;99.90;;;;;;5063888;28;19928;-68
2022/01/09 01:26:26;;;;;;;;;;;5.90;99.90;;;;;;5064578;28;19925;-68
2022/01/09 01:28:54;;;;;;;;;;;6.00;99.90;;;;;;5064233;28;19924;-68
2022/01/09 01:31:22;;;;;;;;;;;5.90;99.90;;;;;;5068002;28;20289;-68
2022/01/09 01:33:49;;;;;;;;;;;5.90;99.90;;;;;;5069262;28;19950;-68
2022/01/09 01:36:15;;;;;;;;;;;5.90;99.90;;;;;;5062219;28;19932;-67
2022/01/09 01:38:42;;;;;;;;;;;5.90;99.90;;;;;;5067691;28;19924;-67
2022/01/09 01:41:09;;;;;;;;;;;;;;;;;;5067472;28;19929;-68
2022/01/09 01:43:36;;;;;;;;;;;;;;;;;;5063026;28;19925;-68
2022/01/09 01:46:03;;;;;;;;;;;;;;;;;;5067249;28;19925;-69
2022/01/09 01:48:30;;;;;;;;;;;;;;;;;;5067816;28;19940;-68
2022/01/09 01:50:57;;;;;;;;;;;;;;;;;;5066047;28;19932;-67
2022/01/09 01:53:24;;;;;;;;;;;;;;;;;;5070902;28;19932;-69
2022/01/09 01:55:54;;;;;;;;;;;;;;;;;;5069751;28;20023;-68
2022/01/09 01:58:21;;;;;;;;;;;;;;;;;;5064922;28;19928;-69
2022/01/09 02:00:48;;;;;;;;;;;;;;;;;;5063667;28;19924;-69
2022/01/09 02:03:15;;;;;;;;;;;;;;;;;;5064608;28;19924;-69
2022/01/09 02:05:42;;;;;;;;;;;;;;;;;;5066467;28;19931;-68
2022/01/09 02:08:09;;;;;;;;;;;;;;;;;;5069179;28;19936;-69
2022/01/09 02:10:36;;;;;;;;;;;;;;;;;;5062590;28;19939;-67
2022/01/09 02:13:04;;;;;;;;;;;;;;;;;;5075808;28;19924;-69
2022/01/09 02:15:31;;;;;;;;;;;;;;;;;;5067211;28;20015;-69
2022/01/09 02:17:58;;;;;;;;;;;;;;;;;;5065450;28;19932;-68
2022/01/09 02:20:25;;;;;;;;;;;;;;;;;;5066853;28;19936;-69
2022/01/09 02:22:52;;;;;;;;;;;;;;;;;;5066634;28;19925;-68
2022/01/09 02:25:19;;;;;;;;;;;;;;;;;;5063386;28;19936;-69
2022/01/09 02:27:46;;;;;;;;;;;;;;;;;;5068613;28;19932;-69
2022/01/09 02:30:13;;;;;;;;;;;;;;;;;;5067318;28;19928;-69
2022/01/09 02:32:40;;;;;;;;;;;;;;;;;;5068846;28;19932;-69
2022/01/09 02:35:07;;;;;;;;;;;;;;;;;;5072428;28;19924;-68
2022/01/09 02:37:34;;;;;;;;;;;;;;;;;;5072315;28;20437;-68
2022/01/09 02:40:00;;;;;;;;;;;;;;;;;;5070569;28;20297;-69
2022/01/09 02:42:29;;;;;;;;;;;;;;;;;;5070888;28;19924;-68
2022/01/09 02:44:56;;;;;;;;;;;;;;;;;;5069228;28;20396;-68
2022/01/09 02:47:25;;;;;;;;;;;;;;;;;;5071014;28;19931;-69
2022/01/09 02:49:53;;;;;;;;;;;;;;;;;;5072107;28;19970;-68
2022/01/09 02:52:32;;;;;;;;;;;;;;;;;;5067416;28;19947;-68
2022/01/09 02:55:11;;;;;;;;;;;;;;;;;;5063886;28;19936;-69
2022/01/09 02:57:38;;;;;;;;;;;;;;;;;;5069351;28;19931;-68
2022/01/09 03:00:05;;;;;;;;;;;;;;;;;;5068944;28;19924;-68
2022/01/09 03:02:32;;;;;;;;;;;;;;;;;;5071764;28;19948;-69
2022/01/09 03:04:59;;;;;;;;;;;;;;;;;;5067550;28;19925;-68
2022/01/09 03:07:26;;;;;;;;;;;;;;;;;;5064765;28;20305;-68
2022/01/09 03:09:53;;;;;;;;;;;;;;;;;;5069928;28;19932;-69
2022/01/09 03:12:20;;;;;;;;;;;;;;;;;;5069579;28;19924;-68
2022/01/09 03:14:47;;;;;;;;;;;;;;;;;;5071891;28;19930;-68
2022/01/09 03:17:14;;;;;;;;;;;;;;;;;;5070142;28;19935;-68
2022/01/09 03:19:41;;;;;;;;;;;;;;;;;;5069977;28;19924;-68
2022/01/09 03:22:08;;;;;;;;;;;;;;;;;;5069371;28;19925;-69
2022/01/09 03:24:35;;;;;;;;;;;;;;;;;;5073169;28;19946;-69
2022/01/09 03:27:02;;;;;;;;;;;;;;;;;;5069264;28;19931;-69
2022/01/09 03:29:29;;;;;;;;;;;;;;;;;;5071067;28;19928;-68
2022/01/09 03:31:56;;;;;;;;;;;;;;;;;;5069258;28;20405;-68
2022/01/09 03:34:23;;;;;;;;;;;;;;;;;;5070761;28;19924;-68
2022/01/09 03:36:50;;;;;;;;;;;;;;;;;;5070303;28;20368;-68
2022/01/09 03:39:17;;;;;;;;;;;;;;;;;;5068737;28;20460;-69
2022/01/09 03:41:44;;;;;;;;;;;;;;;;;;5070507;28;19925;-68
2022/01/09 03:44:11;;;;;;;;;;;;;;;;;;5069777;28;19930;-68
2022/01/09 03:46:38;;;;;;;;;;;;;;;;;;5067850;28;20321;-69
2022/01/09 03:49:05;;;;;;;;;;;;;;;;;;5072418;28;19925;-69
2022/01/09 03:51:36;;;;;;;;;;;;;;;;;;5071665;28;20312;-69
2022/01/09 03:54:03;;;;;;;;;;;;;;;;;;5069879;28;19956;-69
2022/01/09 03:56:30;;;;;;;;;;;;;;;;;;5070034;28;19986;-68
2022/01/09 03:58:57;;;;;;;;;;;;;;;;;;5068215;28;19955;-68
2022/01/09 04:01:24;;;;;;;;;;;;;;;;;;5072629;28;19924;-68
2022/01/09 04:03:51;;;;;;;;;;;;;;;;;;5067666;28;19925;-68
2022/01/09 04:06:18;;;;;;;;;;;;;;;;;;5069517;28;19925;-69
2022/01/09 04:08:47;;;;;;;;;;;;;;;;;;5066083;28;19930;-68
2022/01/09 04:11:14;;;;;;;;;;;;;;;;;;5064485;28;20393;-68
2022/01/09 04:13:41;;;;;;;;;;;;;;;;;;5067497;28;19928;-68
2022/01/09 04:16:08;;;;;;;;;;;;;;;;;;5070134;28;20015;-67
2022/01/09 04:18:35;;;;;;;;;;;;;;;;;;5070790;28;19924;-68
2022/01/09 04:21:02;;;;;;;;;;;;;;;;;;5076858;28;19929;-68
2022/01/09 04:23:29;;;;;;;;;;;;;;;;;;5069948;28;20286;-68
2022/01/09 04:25:56;;;;;;;;;;;;;;;;;;5069628;28;19924;-67
2022/01/09 04:28:23;;;;;;;;;;;;;;;;;;5066479;28;19924;-67
2022/01/09 04:30:50;;;;;;;;;;;;;;;;;;5070940;28;19934;-67
2022/01/09 04:33:17;;;;;;;;;;;;;;;;;;5070461;28;19925;-68
2022/01/09 04:35:44;;;;;;;;;;;;;;;;;;5067309;28;20392;-68
2022/01/09 04:38:11;;;;;;;;;;;;;;;;;;5062447;28;19928;-68
2022/01/09 04:40:38;;;;;;;;;;;;;;;;;;5069216;28;20038;-68
2022/01/09 04:43:08;;;;;;;;;;;;;;;;;;5071958;28;20292;-68
2022/01/09 04:45:35;;;;;;;;;;;;;;;;;;5070267;28;19932;-68
2022/01/09 04:48:05;;;;;;;;;;;;;;;;;;5067720;28;19978;-68
2022/01/09 04:50:34;;;;;;;;;;;;;;;;;;5070642;28;19932;-68
2022/01/09 04:53:05;;;;;;;;;;;;;;;;;;5066348;28;19924;-68
2022/01/09 04:55:32;;;;;;;;;;;;;;;;;;5063997;28;19928;-68
2022/01/09 04:57:59;;;;;;;;;;;;;;;;;;5065948;28;19947;-68
2022/01/09 05:00:26;;;;;;;;;;;;;;;;;;5065911;28;19924;-68
2022/01/09 05:02:53;;;;;;;;;;;;;;;;;;5066708;28;19929;-68
2022/01/09 05:05:20;;;;;;;;;;;;;;;;;;5067787;28;20003;-68
2022/01/09 05:07:47;;;;;;;;;;;;;;;;;;5065289;28;19924;-68
2022/01/09 05:10:14;;;;;;;;;;;;;;;;;;5067584;28;19931;-68
2022/01/09 05:12:41;;;;;;;;;;;;;;;;;;5066408;28;20373;-67
2022/01/09 05:15:08;;;;;;;;;;;;;;;;;;5066321;28;20027;-68
2022/01/09 05:17:35;;;;;;;;;;;;;;;;;;5069003;28;19925;-69
2022/01/09 05:20:02;;;;;;;;;;;;;;;;;;5070819;28;20007;-68
2022/01/09 05:22:29;;;;;;;;;;;;;;;;;;5067802;28;19925;-69
2022/01/09 05:24:58;;;;;;;;;;;;;;;;;;5062867;28;19924;-68
2022/01/09 05:27:25;;;;;;;;;;;;;;;;;;5067677;28;19931;-69
2022/01/09 05:29:52;;;;;;;;;;;;;;;;;;5067411;28;19929;-68
2022/01/09 05:32:19;;;;;;;;;;;;;;;;;;5066610;28;19939;-69
2022/01/09 05:34:46;;;;;;;;;;;;;;;;;;5067815;28;19924;-68
2022/01/09 05:37:13;;;;;;;;;;;;;;;;;;5068603;28;19932;-68
2022/01/09 05:39:40;;;;;;;;;;;;;;;;;;5068710;28;19925;-69
2022/01/09 05:42:07;;;;;;;;;;;;;;;;;;5068158;28;19924;-68
2022/01/09 05:44:34;;;;;;;;;;;;;;;;;;5067467;28;20300;-68
2022/01/09 05:47:01;;;;;;;;;;;;;;;;;;5067380;28;19935;-68
2022/01/09 05:49:28;;;;;;;;;;;;;;;;;;5066047;28;20393;-68
2022/01/09 05:51:55;;;;;;;;;;;;;;;;;;5061695;28;19928;-68
2022/01/09 05:54:22;;;;;;;;;;;;;;;;;;5065981;28;19931;-67
2022/01/09 05:56:51;;;;;;;;;;;;;;;;;;5063551;28;20374;-67
2022/01/09 05:59:18;;;;;;;;;;;;;;;;;;5066615;28;19932;-68
2022/01/09 06:01:45;;;;;;;;;;;;;;;;;;5065996;28;19932;-67
2022/01/09 06:04:12;;;;;;;;;;;;;;;;;;5066017;28;19924;-67
2022/01/09 06:06:39;;;;;;;;;;;;;;;;;;5066757;28;19931;-67
2022/01/09 06:09:08;;;;;;;;;;;;;;;;;;5068816;28;19925;-67
2022/01/09 06:11:35;;;;;;;;;;;;;;;;;;5077992;28;19931;-67
2022/01/09 06:14:02;;;;;;;;;;;;;;;;;;5078110;28;19932;-68
2022/01/09 06:16:29;;;;;;;;;;;;;;;;;;5072561;28;20386;-68
2022/01/09 06:18:56;;;;;;;;;;;;;;;;;;5070149;28;19924;-69
2022/01/09 06:21:23;;;;;;;;;;;;;;;;;;5069487;28;20019;-68
2022/01/09 06:23:50;;;;;;;;;;;;;;;;;;5070013;28;20270;-68
2022/01/09 06:26:17;;;;;;;;;;;;;;;;;;5071871;28;20540;-68
2022/01/09 06:28:44;;;;;;;;;;;;;;;;;;5069134;28;19924;-68
2022/01/09 06:31:11;;;;;;;;;;;;;;;;;;5067382;28;20361;-68
2022/01/09 06:33:37;;;;;;;;;;;;;;;;;;5072094;28;19931;-68
2022/01/09 06:36:04;;;;;;;;;;;;;;;;;;5070186;28;19932;-68
2022/01/09 06:38:31;;;;;;;;;;;;;;;;;;5071239;28;20323;-68
2022/01/09 06:40:58;;;;;;;;;;;;;;;;;;5068566;28;19931;-68
2022/01/09 06:43:25;;;;;;;;;;;;;;;;;;5071350;28;19924;-68
2022/01/09 06:45:52;;;;;;;;;;;;;;;;;;5069944;28;19935;-68
2022/01/09 06:48:19;;;;;;;;;;;;;;;;;;5072330;28;20397;-67
2022/01/09 06:50:46;;;;;;;;;;;;;;;;;;5068678;28;20008;-68
2022/01/09 06:53:13;;;;;;;;;;;;;;;;;;5070442;28;20297;-68
2022/01/09 06:55:40;;;;;;;;;;;;;;;;;;5067989;28;19925;-67
2022/01/09 06:58:07;;;;;;;;;;;;;;;;;;5064314;28;19925;-68
2022/01/09 07:00:34;;;;;;;;;;;;;;;;;;5067501;28;19924;-67
2022/01/09 07:03:01;;;;;;;;;;;;;;;;;;5060466;28;19929;-68
2022/01/09 07:05:28;;;;;;;;;;;;;;;;;;5084605;22;20381;-63
2022/01/09 07:07:55;;;;;;;;;;;;;;;;;;5039263;28;19948;-63
2022/01/09 07:10:22;;;;;;;;;;;;;;;;;;5040741;28;19933;-65
2022/01/09 07:12:49;;;;;;;;;;;;;;;;;;5054860;28;19925;-68
2022/01/09 07:15:16;;;;;;;;;;;;;;;;;;5048020;28;19925;-66
2022/01/09 07:17:43;;;;;;;;;;;;;;;;;;5047232;28;19932;-66
2022/01/09 07:20:10;;;;;;;;;;;;;;;;;;5042210;28;19932;-66
2022/01/09 07:22:37;;;;;;;;;;;;;;;;;;5052965;28;19933;-66
2022/01/09 07:25:05;;;;;;;;;;;;;;;;;;5044366;28;20007;-66
2022/01/09 07:27:32;;;;;;;;;;;;;;;;;;5044658;28;19928;-66
2022/01/09 07:29:59;;;;;;;;;;;;;;;;;;5047573;28;19924;-66
2022/01/09 07:32:28;;;;;;;;;;;;;;;;;;5049551;28;20416;-65
2022/01/09 07:34:57;;;;;;;;;;;;;;;;;;5045333;28;19932;-65
2022/01/09 07:37:25;;;;;;;;;;;;;;;;;;5050415;28;19925;-65
2022/01/09 07:39:52;;;;;;;;;;;;;;;;;;5049662;28;19986;-65
2022/01/09 07:42:19;;;;;;;;;;;;;;;;;;5052985;28;19925;-66
2022/01/09 07:44:46;;;;;;;;;;;;;;;;;;5049419;28;19925;-66
2022/01/09 07:47:13;;;;;;;;;;;;;;;;;;5049251;28;19931;-66
2022/01/09 07:49:40;;;;;;;;;;;;;;;;;;5049245;28;19925;-66
2022/01/09 07:52:07;;;;;;;;;;;;;;;;;;5047011;28;20429;-66
2022/01/09 07:54:34;;;;;;;;;;;;;;;;;;5046767;28;20331;-66
2022/01/09 07:57:01;;;;;;;;;;;;;;;;;;5047961;28;19932;-66
2022/01/09 07:59:28;;;;;;;;;;;;;;;;;;5051197;28;19925;-66
2022/01/09 08:01:55;;;;;;;;;;;;;;;;;;5047723;28;19925;-66
2022/01/09 08:04:22;;;;;;;;;;;;;;;;;;5048701;28;19925;-66
2022/01/09 08:06:49;;;;;;;;;;;;;;;;;;5046799;28;19933;-66
2022/01/09 08:09:16;;;;;;;;;;;;;;;;;;5052171;28;19925;-66
2022/01/09 08:11:42;;;;;;;;;;;;;;;;;;5050432;28;19929;-65
2022/01/09 08:14:09;;;;;;;;;;;;;;;;;;5050121;28;19924;-65
2022/01/09 08:16:36;;;;;;;;;;;;;;;;;;5047058;28;19933;-66
2022/01/09 08:19:03;;;;;;;;;;;;;;;;;;5058285;28;19924;-66
2022/01/09 08:21:31;;;;;;;;;;;;;;;;;;5052773;28;19924;-65
2022/01/09 08:23:57;;;;;;;;;;;;;;;;;;5050473;28;20095;-66
2022/01/09 08:26:24;;;;;;;;;;;;;;;;;;5044282;28;19932;-66
2022/01/09 08:28:53;;;;;;;;;;;;;;;;;;5045908;28;19925;-66
2022/01/09 08:31:20;;;;;;;;;;;;;;;;;;5043814;28;19929;-66
2022/01/09 08:33:47;;;;;;;;;;;;;;;;;;5048849;28;19924;-65
2022/01/09 08:36:14;;;;;;;;;;;;;;;;;;5048197;28;19924;-65
2022/01/09 08:38:42;;;;;;;;;;;;;;;;;;5047404;28;19925;-65
2022/01/09 08:41:09;;;;;;;;;;;;;;;;;;5045540;28;19924;-64
2022/01/09 08:43:36;;;;;;;;;;;;;;;;;;5059442;28;19931;-65
2022/01/09 08:46:03;;;;;;;;;;;;;;;;;;5045457;28;19929;-64
2022/01/09 08:48:30;;;;;;;;;;;;;;;;;;5049620;28;20382;-63
2022/01/09 08:50:57;;;;;;;;;;;;;;;;;;5048634;28;20303;-65
2022/01/09 08:53:24;;;;;;;;;;;;;;;;;;5046348;28;20313;-64
2022/01/09 08:55:51;;;;;;;;;;;;;;;;;;5045396;28;19925;-65
2022/01/09 08:58:18;;;;;;;;;;;;;;;;;;5046244;28;19929;-65
2022/01/09 09:00:45;;;;;;;;;;;;;;;;;;5047230;28;19937;-65
2022/01/09 09:03:12;;;;;;;;;;;;;;;;;;5042543;28;19937;-65
2022/01/09 09:05:38;;;;;;;;;;;;;;;;;;5045774;28;19924;-65
2022/01/09 09:08:05;;;;;;;;;;;;;;;;;;5048051;28;20314;-65
2022/01/09 09:10:32;;;;;;;;;;;;;;;;;;5048419;28;19936;-65
2022/01/09 09:12:59;;;;;;;;;;;;;;;;;;5045515;28;19924;-65
2022/01/09 09:15:26;;;;;;;;;;;;;;;;;;5055243;28;19932;-65
2022/01/09 09:17:53;;;;;;;;;;;;;;;;;;5047794;28;20306;-65
2022/01/09 09:20:20;;;;;;;;;;;;;;;;;;5040826;28;19932;-65
2022/01/09 09:22:47;;;;;;;;;;;;;;;;;;5045901;28;19932;-65
2022/01/09 09:25:14;;;;;;;;;;;;;;;;;;5049070;28;19932;-65
2022/01/09 09:27:41;;;;;;;;;;;;;;;;;;5044003;28;19925;-65
2022/01/09 09:30:09;;;;;;;;;;;;;;;;;;5047562;28;20325;-65
2022/01/09 09:32:36;;;;;;;;;;;;;;;;;;5044750;28;20413;-64
2022/01/09 09:35:03;;;;;;;;;;;;;;;;;;5048483;28;19924;-64
2022/01/09 09:37:30;;;;;;;;;;;;;;;;;;5045104;28;19925;-65
2022/01/09 09:39:57;;;;;;;;;;;;;;;;;;5043476;28;19931;-65
2022/01/09 09:42:23;;;;;;;;;;;;;;;;;;5045340;28;20397;-65
2022/01/09 09:44:50;;;;;;;;;;;;;;;;;;5048315;28;20127;-65
2022/01/09 09:47:19;;;;;;;;;;;8.50;99.90;;;;;;5049241;28;19932;-65
2022/01/09 09:49:46;;;;;;;;;;;8.90;99.90;;;;;;5045261;28;19939;-65
2022/01/09 09:52:15;;;;;;;;;;;9.00;99.90;;;;;;5049363;28;20024;-65
2022/01/09 09:54:42;;;;;;;;;;;8.60;99.90;;;;;;5043928;28;19924;-65
2022/01/09 09:57:09;;;;;;;;;;;8.10;99.90;;;;;;5046360;28;19928;-65
2022/01/09 09:59:36;;;;;;;;;;;;;;;;;;5047043;28;20011;-65
2022/01/09 10:02:03;;;;;;;;;;;;;;;;;;5044706;28;20400;-65
2022/01/09 10:04:30;;;;;;;;;;;;;;;;;;5042592;28;20072;-65
2022/01/09 10:06:57;;;;;;;;;;;;;;;;;;5048575;28;20027;-65
2022/01/09 10:09:24;;;;;;;;;;;;;;;;;;5038140;28;19929;-65
2022/01/09 10:11:53;;;;;;;;;;;;;;;;;;5044400;28;19925;-65
2022/01/09 10:14:20;;;;;;;;;;;;;;;;;;5044716;28;19928;-64
2022/01/09 10:16:47;;;;;;;;;;;;;;;;;;5045660;28;19925;-65
2022/01/09 10:19:14;;;;;;;;;;;;;;;;;;5045837;28;19929;-65
2022/01/09 10:21:41;;;;;;;;;;;;;;;;;;5048192;28;20400;-64
2022/01/09 10:24:08;;;;;;;;;;;;;;;;;;5039265;28;19925;-65
2022/01/09 10:26:35;;;;;;;;;;;;;;;;;;5046808;28;20394;-65
2022/01/09 10:29:02;;;;;;;;;;;;;;;;;;5046410;28;19931;-65
2022/01/09 10:31:29;;;;;;;;;;;;;;;;;;5046094;28;19959;-65
2022/01/09 10:33:56;;;;;;;;;;;;;;;;;;5047651;28;19947;-65
2022/01/09 10:36:23;;;;;;;;;;;;;;;;;;5042192;28;19925;-65
2022/01/09 10:38:50;;;;;;;;;;;;;;;;;;5045497;28;19925;-65
2022/01/09 10:41:17;;;;;;;;;;;;;;;;;;5042098;28;19925;-65
2022/01/09 10:43:44;;;;;;;;;;;;;;;;;;5046054;28;19933;-65
2022/01/09 10:46:11;;;;;;;;;;;;;;;;;;5040676;28;19929;-64
2022/01/09 10:48:37;;;;;;;;;;;;;;;;;;5046365;28;19925;-64
2022/01/09 10:51:05;;;;;;;;;;;;;;;;;;5046904;28;19932;-65
2022/01/09 10:53:31;;;;;;;;;;;;;;;;;;5043713;28;19932;-64
2022/01/09 10:55:58;;;;;;;;;;;;;;;;;;5042817;28;19946;-64
2022/01/09 10:58:26;;;;;;;;;;;;;;;;;;5048058;28;19925;-63
2022/01/09 11:00:53;;;;;;;;;;;;;;;;;;5045943;28;20314;-64
2022/01/09 11:03:20;;;;;;;;;;;;;;;;;;5048404;28;19925;-64
2022/01/09 11:05:48;;;;;;;;;;;;;;;;;;5047488;28;19925;-66
2022/01/09 11:08:15;;;;;;;;;;;;;;;;;;5041507;28;20397;-65
2022/01/09 11:10:42;;;;;;;;;;;;;;;;;;5047420;28;19929;-65
2022/01/09 11:13:14;;;;;;;;;;;;;;;;;;5042712;28;20008;-64
2022/01/09 11:16:32;;;;;;;;;;;;;;;;;;5043994;28;20073;-64
2022/01/09 11:18:28;;;;;;;;;;;;;;;;;;5044609;28;20396;-65
2022/01/09 11:20:55;;;;;;;;;;;;;;;;;;5043016;28;20300;-65
2022/01/09 11:23:22;;;;;;;;;;;;;;;;;;5048463;28;19928;-65
2022/01/09 11:25:51;;;;;;;;;;;;;;;;;;5045690;28;20190;-66
2022/01/09 11:28:18;;;;;;;;;;;;;;;;;;5045184;28;19925;-65
2022/01/09 11:30:45;;;;;;;;;;;;;;;;;;5042825;28;19947;-65
2022/01/09 11:33:12;;;;;;;;;;;;;;;;;;5043645;28;19943;-66
2022/01/09 11:35:39;;;;;;;;;;;;;;;;;;5042240;28;19924;-65
2022/01/09 11:38:06;;;;;;;;;;;;;;;;;;5041912;28;20374;-66
2022/01/09 11:40:33;;;;;;;;;;;;;;;;;;5044216;28;19936;-64
2022/01/09 11:43:00;;;;;;;;;;;;;;;;;;5041646;28;19979;-64
2022/01/09 11:45:27;;;;;;;;;;;;;;;;;;5037827;28;19933;-64
2022/01/09 11:47:54;;;;;;;;;;;;;;;;;;5043186;28;19929;-65
2022/01/09 11:50:21;;;;;;;;;;;;;;;;;;5039796;28;19929;-65
2022/01/09 11:52:48;;;;;;;;;;;;;;;;;;5037950;28;19937;-65
2022/01/09 11:55:15;;;;;;;;;;;;;;;;;;5038195;28;19929;-64
2022/01/09 11:57:44;;;;;;;;;;;;;;;;;;5041434;28;20301;-64
2022/01/09 12:00:11;;;;;;;;;;;;;;;;;;5036819;28;20926;-64
2022/01/09 12:02:38;;;;;;;;;;;;;;;;;;5043498;28;19934;-65
2022/01/09 12:05:06;;;;;;;;;;;;;;;;;;5041039;28;19932;-65
2022/01/09 12:07:33;;;;;;;;;;;;;;;;;;5035668;28;20028;-64
2022/01/09 12:10:00;;;;;;;;;;;;;;;;;;5046197;28;20567;-64
2022/01/09 12:12:27;;;;;;;;;;;;;;;;;;5047983;28;20027;-63
2022/01/09 12:14:54;;;;;;;;;;;;;;;;;;5044110;28;19929;-63
2022/01/09 12:17:21;;;;;;;;;;;;;;;;;;5042070;28;19925;-63
2022/01/09 12:19:49;;;;;;;;;;;;;;;;;;5046183;28;19948;-63
2022/01/09 12:22:16;;;;;;;;;;;;;;;;;;5037726;28;20251;-63
2022/01/09 12:24:43;;;;;;;;;;;;;;;;;;5040763;28;19929;-64
2022/01/09 12:27:10;;;;;;;;;;;;;;;;;;5039036;28;19925;-65
2022/01/09 12:29:37;;;;;;;;;;;;;;;;;;5041268;28;19925;-65
2022/01/09 12:32:04;;;;;;;;;;;;;;;;;;5046651;28;20394;-66
2022/01/09 12:34:31;;;;;;;;;;;;;;;;;;5040552;28;20492;-64
2022/01/09 12:36:58;;;;;;;;;;;;;;;;;;5040206;28;20007;-65
2022/01/09 12:39:25;;;;;;;;;;;;;;;;;;5041942;28;19925;-65
2022/01/09 12:41:52;;;;;;;;;;;;;;;;;;5042625;28;20339;-65
2022/01/09 12:44:19;;;;;;;;;;;;;;;;;;5034455;28;19931;-64
2022/01/09 12:46:48;;;;;;;;;;;;;;;;;;5044446;28;20026;-64
2022/01/09 12:49:16;;;;;;;;;;;;;;;;;;5041199;28;20426;-64
2022/01/09 12:51:43;;;;;;;;;;;;;;;;;;5042044;28;20466;-65
2022/01/09 12:54:10;;;;;;;;;;;;;;;;;;5042957;28;19929;-66
2022/01/09 12:56:36;;;;;;;;;;;;;;;;;;5047491;28;19931;-64
2022/01/09 12:59:06;;;;;;;;;;;;;;;;;;5044369;28;19931;-65
2022/01/09 13:01:33;;;;;;;;;;;;;;;;;;5042726;28;19970;-64
2022/01/09 13:03:59;;;;;;;;;;;;;;;;;;5048357;28;19937;-66
2022/01/09 13:06:26;;;;;;;;;;;;;;;;;;5062305;22;19933;-66
2022/01/09 13:08:53;;;;;;;;;;;;;;;;;;5061236;28;19929;-66
2022/01/09 13:11:21;;;;;;;;;;;;;;;;;;5061584;28;19933;-64
2022/01/09 13:13:48;;;;;;;;;;;;;;;;;;5065206;28;19932;-66
2022/01/09 13:16:15;;;;;;;;;;;;;;;;;;5060293;28;19929;-66
2022/01/09 13:18:42;;;;;;;;;;;;;;;;;;5044030;28;19929;-65
2022/01/09 13:21:09;;;;;;;;;;;;;;;;;;5047789;28;19936;-65
2022/01/09 13:23:36;;;;;;;;;;;;;;;;;;5040778;28;20333;-65
2022/01/09 13:26:03;;;;;;;;;;;;;;;;;;5043055;28;19932;-64
2022/01/09 13:28:31;;;;;;;;;;;;;;;;;;5048002;28;19929;-64
2022/01/09 13:30:59;;;;;;;;;;;;;;;;;;5047180;28;19925;-64
2022/01/09 13:33:27;;;;;;;;;;;;;;;;;;5044370;28;20688;-64
2022/01/09 13:35:54;;;;;;;;;;;;;;;;;;5046677;28;19924;-63
2022/01/09 13:38:21;;;;;;;;;;;;;;;;;;5045417;28;20013;-64
2022/01/09 13:40:49;;;;;;;;;;;;;;;;;;5044503;28;19924;-65
2022/01/09 13:43:16;;;;;;;;;;;;;;;;;;5047172;28;19933;-65
2022/01/09 13:45:45;;;;;;;;;;;;;;;;;;5045815;28;19929;-66
2022/01/09 13:48:12;;;;;;;;;;;;;;;;;;5041411;28;20290;-66
2022/01/09 13:50:39;;;;;;;;;;;;;;;;;;5045282;28;19956;-65
2022/01/09 13:53:06;;;;;;;;;;;;;;;;;;5041209;28;19933;-65
2022/01/09 13:55:33;;;;;;;;;;;;;;;;;;5043694;28;20305;-65
2022/01/09 13:58:01;;;;;;;;;;;;;;;;;;5043273;28;19948;-65
2022/01/09 14:00:28;;;;;;;;;;;;;;;;;;5042093;28;19929;-66
2022/01/09 14:02:55;;;;;;;;;;;;;;;;;;5040859;28;19928;-65
2022/01/09 14:05:23;;;;;;;;;;;;;;;;;;5045935;28;20321;-65
2022/01/09 14:07:50;;;;;;;;;;;;;;;;;;5046087;28;20301;-65
2022/01/09 14:10:17;;;;;;;;;;;;;;;;;;5044890;28;19924;-65
2022/01/09 14:12:44;;;;;;;;;;;;;;;;;;5045943;28;19932;-65
2022/01/09 14:15:12;;;;;;;;;;;;;;;;;;5044045;28;19939;-64
2022/01/09 14:17:39;;;;;;;;;;;;;;;;;;5046176;28;20359;-64
2022/01/09 14:20:06;;;;;;;;;;;;;;;;;;5047087;28;20011;-65
2022/01/09 14:22:33;;;;;;;;;;;;;;;;;;5041777;28;19924;-66
2022/01/09 14:25:00;;;;;;;;;;;;;;;;;;5045171;28;19929;-65
2022/01/09 14:27:27;;;;;;;;;;;;;;;;;;5041621;28;19935;-65
2022/01/09 14:29:54;;;;;;;;;;;;;;;;;;5048196;28;19933;-66
2022/01/09 14:32:21;;;;;;;;;;;;;;;;;;5049567;28;19925;-66
2022/01/09 14:34:48;;;;;;;;;;;;;;;;;;5048766;28;19925;-66
2022/01/09 14:37:15;;;;;;;;;;;;;;;;;;5048618;28;19935;-66
2022/01/09 14:39:42;;;;;;;;;;;;;;;;;;5045981;28;19929;-66
2022/01/09 14:42:08;;;;;;;;;;;;;;;;;;5050656;28;20370;-65
2022/01/09 14:44:35;;;;;;;;;;;;;;;;;;5049303;28;20413;-65
2022/01/09 14:47:02;;;;;;;;;;;;;;;;;;5048766;28;19967;-65
2022/01/09 14:49:29;;;;;;;;;;;;;;;;;;5046186;28;19929;-65
2022/01/09 14:51:56;;;;;;;;;;;;;;;;;;5047387;28;19928;-66
2022/01/09 14:54:23;;;;;;;;;;;;;;;;;;5049355;28;19929;-65
2022/01/09 14:56:50;;;;;;;;;;;;;;;;;;5051181;28;19939;-65
2022/01/09 14:59:17;;;;;;;;;;;;;;;;;;5049816;28;20302;-66
2022/01/09 15:01:44;;;;;;;;;;;;;;;;;;5044737;28;19936;-65
2022/01/09 15:04:11;;;;;;;;;;;;;;;;;;5048757;28;19925;-65
2022/01/09 15:06:39;;;;;;;;;;;;;;;;;;5049762;28;19940;-66
2022/01/09 15:09:06;;;;;;;;;;;;;;;;;;5049374;28;19925;-66
2022/01/09 15:11:32;;;;;;;;;;;;;;;;;;5048150;28;19925;-66
2022/01/09 15:14:00;;;;;;;;;;;;;;;;;;5043681;28;19932;-64
2022/01/09 15:16:27;;;;;;;;;;;;;;;;;;5049340;28;20048;-64
2022/01/09 15:18:53;;;;;;;;;;;;;;;;;;5051023;28;19932;-65
2022/01/09 15:21:21;;;;;;;;;;;;;;;;;;5046234;28;19933;-65
2022/01/09 15:23:48;;;;;;;;;;;;;;;;;;5049763;28;20398;-65
2022/01/09 15:26:15;;;;;;;;;;;;;;;;;;5052021;28;20003;-65
2022/01/09 15:28:42;;;;;;;;;;;;;;;;;;5046243;28;19979;-65
2022/01/09 15:31:09;;;;;;;;;;;;;;;;;;5046858;28;19932;-66
2022/01/09 15:33:36;;;;;;;;;;;;;;;;;;5048492;28;19929;-66
2022/01/09 15:36:03;;;;;;;;;;;;;;;;;;5046946;28;19925;-65
2022/01/09 15:38:30;;;;;;;;;;;;;;;;;;5045498;28;19935;-66
2022/01/09 15:40:57;;;;;;;;;;;;;;;;;;5045668;28;20362;-66
2022/01/09 15:43:24;;;;;;;;;;;;;;;;;;5047284;28;20341;-67
2022/01/09 15:45:52;;;;;;;;;;;;;;;;;;5047399;28;20353;-66
2022/01/09 15:48:20;;;;;;;;;;;;;;;;;;5049568;28;19925;-66
2022/01/09 15:50:47;;;;;;;;;;;;;;;;;;5046947;28;20013;-67
2022/01/09 15:53:14;;;;;;;;;;;;;;;;;;5043948;28;19935;-66
2022/01/09 15:55:41;;;;;;;;;;;;;;;;;;5044032;28;19940;-69
2022/01/09 15:58:08;;;;;;;;;;;;;;;;;;5046295;28;20306;-68
2022/01/09 16:00:35;;;;;;;;;;;;;;;;;;5046574;28;20286;-66
2022/01/09 16:03:02;;;;;;;;;;;;;;;;;;5046157;28;19948;-65
2022/01/09 16:05:29;;;;;;;;;;;;;;;;;;5044251;28;19929;-65
2022/01/09 16:07:56;;;;;;;;;;;;;;;;;;5050990;28;19932;-65
2022/01/09 16:10:23;;;;;;;;;;;;;;;;;;5046452;28;19939;-65
2022/01/09 16:12:51;;;;;;;;;;;;;;;;;;5049971;28;20362;-66
2022/01/09 16:15:18;;;;;;;;;;;;;;;;;;5045037;28;19924;-66
2022/01/09 16:17:45;;;;;;;;;;;;;;;;;;5046622;28;20283;-66
2022/01/09 16:20:12;;;;;;;;;;;;;;;;;;5049281;28;19924;-65
2022/01/09 16:22:40;;;;;;;;;;;;;;;;;;5042315;28;19925;-66
2022/01/09 16:25:07;;;;;;;;;;;;;;;;;;5043664;28;20542;-65
2022/01/09 16:27:34;;;;;;;;;;;;;;;;;;5037874;28;19936;-65